Time;durP1;ratioP1;P1;durP2;ratioP2;P2;SDS_P1;SDS_P2;PMS_P1;PMS_P2;Temp;Humidity;BMP_temperature;BMP_pressure;BME280_temperature;BME280_humidity;BME280_pressure;Samples;Min_cycle;Max_cycle;Signal;HPM_P1;HPM_P2
2023/06/17 00:01:41;;;;;;;;;21.00;19.75;;;;;27.97;29.87;100841.78;5049268;28;30229;-56
2023/06/17 00:04:06;;;;;;;;;20.50;19.50;;;;;28.01;29.88;100859.75;5049600;28;29377;-56
2023/06/17 00:06:32;;;;;;;;;17.25;16.75;;;;;28.01;29.53;100854.09;5049530;28;29617;-56
2023/06/17 00:08:59;;;;;;;;;13.75;13.75;;;;;27.98;30.01;100853.94;5049533;28;29420;-57
2023/06/17 00:11:28;;;;;;;;;17.60;16.00;;;;;27.98;29.74;100851.94;5049602;28;29741;-57
2023/06/17 00:13:54;;;;;;;;;17.60;16.00;;;;;27.93;29.64;100838.00;5031745;28;29555;-57
2023/06/17 00:16:20;;;;;;;;;20.60;19.20;;;;;27.99;30.11;100850.78;5049349;28;29467;-56
2023/06/17 00:18:47;;;;;;;;;17.20;17.20;;;;;27.99;30.12;100842.31;5049745;28;29712;-55
2023/06/17 00:21:13;;;;;;;;;13.80;13.80;;;;;27.99;29.78;100847.13;5049063;28;29888;-55
2023/06/17 00:23:39;;;;;;;;;15.40;15.40;;;;;27.97;29.66;100841.00;5031323;28;29122;-59
2023/06/17 00:26:04;;;;;;;;;17.00;17.00;;;;;27.94;30.02;100834.00;5049061;28;29239;-57
2023/06/17 00:28:30;;;;;;;;;17.75;17.75;;;;;27.98;30.01;100837.00;5033281;28;29359;-57
2023/06/17 00:30:55;;;;;;;;;16.00;15.00;;;;;27.90;30.09;100827.34;5029144;28;30128;-56
2023/06/17 00:33:21;;;;;;;;;20.50;17.25;;;;;27.97;29.89;100844.63;5044555;28;29624;-57
2023/06/17 00:35:46;;;;;;;;;18.75;17.75;;;;;27.92;30.35;100830.69;5011653;28;29899;-57
2023/06/17 00:38:12;;;;;;;;;17.25;15.50;;;;;27.89;30.26;100828.53;5028951;28;29893;-58
2023/06/17 00:40:37;;;;;;;;;19.25;18.25;;;;;27.83;30.15;100815.72;5029104;28;30034;-57
2023/06/17 00:43:02;;;;;;;;;15.50;15.50;;;;;27.76;30.46;100821.03;4994523;28;30308;-55
2023/06/17 00:45:28;;;;;;;;;16.75;16.75;;;;;27.77;30.52;100820.72;5028957;28;29623;-56
2023/06/17 00:47:53;;;;;;;;;16.00;15.50;;;;;27.72;30.73;100818.03;5028873;28;29682;-56
2023/06/17 00:50:19;;;;;;;;;18.75;17.25;;;;;27.65;30.79;100806.41;5010436;28;29471;-52
2023/06/17 00:52:45;;;;;;;;;18.25;17.25;;;;;27.59;30.84;100811.38;5029046;28;29662;-55
2023/06/17 00:55:11;;;;;;;;;14.75;14.75;;;;;27.55;30.71;100802.72;5011179;28;30176;-55
2023/06/17 00:57:37;;;;;;;;;16.75;15.00;;;;;27.52;31.02;100800.53;5028841;28;28991;-57
2023/06/17 01:00:06;;;;;;;;;16.60;16.60;;;;;27.49;31.08;100792.75;5011184;28;30621;-56
2023/06/17 01:02:31;;;;;;;;;19.00;16.80;;;;;27.50;30.64;100796.38;5028375;28;29790;-56
2023/06/17 01:04:57;;;;;;;;;20.00;18.00;;;;;27.43;30.92;100792.03;5029008;28;29404;-57
2023/06/17 01:07:46;;;;;;;;;19.50;18.25;;;;;27.36;31.01;100791.69;5026910;28;29681;-55
2023/06/17 01:10:14;;;;;;;;;20.40;18.40;;;;;27.35;30.71;100792.84;5022963;28;29823;-56
2023/06/17 01:12:40;;;;;;;;;16.60;15.20;;;;;27.19;31.02;100772.72;5028066;28;29723;-56
2023/06/17 01:15:08;;;;;;;;;17.00;17.00;;;;;27.22;31.26;100788.16;5010951;28;29979;-57
2023/06/17 01:17:34;;;;;;;;;14.00;12.60;;;;;27.26;31.53;100792.00;5010728;28;29785;-55
2023/06/17 01:19:59;;;;;;;;;13.75;13.75;;;;;27.26;31.26;100787.19;5028363;28;29534;-57
2023/06/17 01:22:25;;;;;;;;;18.00;17.75;;;;;27.21;31.69;100787.31;5043906;28;29118;-55
2023/06/17 01:24:50;;;;;;;;;13.00;13.00;;;;;27.20;31.13;100783.69;5010372;28;29233;-57
2023/06/17 01:27:16;;;;;;;;;14.75;13.75;;;;;27.18;31.29;100782.34;5010758;28;29567;-55
2023/06/17 01:29:41;;;;;;;;;16.50;16.50;;;;;27.21;31.27;100792.94;5027926;28;29378;-57
2023/06/17 01:32:07;;;;;;;;;16.00;14.50;;;;;27.20;31.54;100775.22;5028191;28;29624;-55
2023/06/17 01:34:39;;;;;;;;;18.75;18.00;;;;;27.22;31.38;100783.38;5010713;28;29659;-57
2023/06/17 01:37:11;;;;;;;;;15.20;15.20;;;;;27.19;31.41;100772.72;5010702;28;30004;-56
2023/06/17 01:39:37;;;;;;;;;19.20;15.80;;;;;27.25;31.31;100777.06;5011072;28;29979;-57
2023/06/17 01:42:02;;;;;;;;;15.25;15.25;;;;;27.22;31.69;100779.72;5027813;28;29325;-57
2023/06/17 01:44:28;;;;;;;;;15.50;13.75;;;;;27.17;31.56;100769.41;5010682;28;29792;-57
2023/06/17 01:46:54;;;;;;;;;16.00;16.00;;;;;27.22;31.42;100774.91;5027707;28;29883;-57
2023/06/17 01:49:19;;;;;;;;;15.00;13.00;;;;;27.22;31.74;100779.72;5010522;28;30467;-58
2023/06/17 01:51:45;;;;;;;;;12.75;12.75;;;;;27.18;31.78;100777.56;5028027;28;29646;-56
2023/06/17 01:54:10;;;;;;;;;18.75;18.75;;;;;27.16;32.09;100774.22;5028202;28;29479;-56
2023/06/17 01:56:36;;;;;;;;;16.00;15.00;;;;;27.15;31.91;100769.75;5028239;28;29613;-56
2023/06/17 01:59:02;;;;;;;;;15.00;14.50;;;;;27.07;31.85;100776.16;5027820;28;29537;-56
2023/06/17 02:01:27;;;;;;;;;19.00;19.00;;;;;26.99;32.08;100771.34;5028164;28;29256;-54
2023/06/17 02:03:52;;;;;;;;;14.25;14.25;;;;;26.89;32.44;100764.78;4986179;28;29875;-53
2023/06/17 02:06:18;;;;;;;;;16.25;15.25;;;;;26.78;32.37;100769.84;5027930;28;29533;-53
2023/06/17 02:08:45;;;;;;;;;13.00;12.75;;;;;26.68;32.56;100772.09;5027915;28;30017;-55
2023/06/17 02:11:10;;;;;;;;;22.40;20.00;;;;;26.61;32.74;100766.91;5010133;28;29880;-55
2023/06/17 02:13:36;;;;;;;;;19.00;17.00;;;;;26.73;32.84;100763.53;5027841;28;29571;-52
2023/06/17 02:16:02;;;;;;;;;15.25;15.25;;;;;26.75;32.86;100766.84;5009733;28;29882;-56
2023/06/17 02:18:27;;;;;;;;;16.75;16.75;;;;;26.71;32.91;100768.63;5027314;28;29929;-54
2023/06/17 02:20:53;;;;;;;;;18.00;16.75;;;;;26.66;32.78;100769.59;5030112;28;29744;-56
2023/06/17 02:23:18;;;;;;;;;15.00;15.00;;;;;26.59;33.01;100764.44;5031004;28;29710;-55
2023/06/17 02:25:44;;;;;;;;;14.25;14.25;;;;;26.64;33.08;100771.91;5031381;28;29724;-57
2023/06/17 02:28:10;;;;;;;;;14.25;14.25;;;;;26.55;33.29;100763.41;5030288;28;30074;-56
2023/06/17 02:30:35;;;;;;;;;16.25;16.00;;;;;26.49;33.32;100761.88;5012943;28;29988;-56
2023/06/17 02:33:00;;;;;;;;;14.75;14.75;;;;;26.45;33.46;100755.22;5030712;28;29713;-57
2023/06/17 02:35:26;;;;;;;;;17.50;17.00;;;;;26.35;33.60;100756.31;5013102;28;29167;-55
2023/06/17 02:37:53;;;;;;;;;14.75;14.75;;;;;26.28;33.73;100744.69;5030742;28;29860;-55
2023/06/17 02:40:18;;;;;;;;;15.20;14.20;;;;;26.22;33.72;100746.78;5030557;28;29827;-55
2023/06/17 02:42:44;;;;;;;;;17.00;17.00;;;;;26.18;33.93;100742.91;5030605;28;29418;-56
2023/06/17 02:45:13;;;;;;;;;17.00;17.00;;;;;26.18;33.97;100742.91;5031052;28;29515;-56
2023/06/17 02:47:42;;;;;;;;;16.00;16.00;;;;;26.23;33.91;100738.03;5030929;28;30596;-56
2023/06/17 02:50:08;;;;;;;;;14.40;14.40;;;;;26.27;33.98;100735.44;5012910;28;29566;-56
2023/06/17 02:52:34;;;;;;;;;17.00;16.75;;;;;26.21;33.96;100722.59;5046162;28;29670;-57
2023/06/17 02:55:00;;;;;;;;;15.75;13.50;;;;;26.28;33.90;100730.63;5031278;28;29128;-55
2023/06/17 02:57:26;;;;;;;;;17.20;16.60;;;;;26.19;33.93;100719.28;5030242;28;30713;-57
2023/06/17 02:59:52;;;;;;;;;15.75;15.75;;;;;26.24;34.14;100730.41;5030614;28;29848;-56
2023/06/17 03:02:17;;;;;;;;;17.20;17.20;;;;;26.06;34.04;100712.56;5030120;28;29354;-55
2023/06/17 03:04:43;;;;;;;;;22.00;20.00;;;;;26.12;34.12;100712.13;5030954;28;29732;-53
2023/06/17 03:07:11;;;;;;;;;17.25;17.00;;;;;26.14;34.23;100714.59;5030283;28;29971;-55
2023/06/17 03:09:36;;;;;;;;;17.00;16.80;;;;;25.97;34.53;100706.84;5030141;28;29628;-57
2023/06/17 03:12:02;;;;;;;;;15.00;15.00;;;;;25.98;34.48;100716.94;5030835;28;29368;-54
2023/06/17 03:14:29;;;;;;;;;16.00;15.00;;;;;25.98;34.49;100717.78;5029968;28;30545;-59
2023/06/17 03:16:57;;;;;;;;;15.80;13.00;;;;;25.97;34.54;100713.31;5030435;28;30721;-57
2023/06/17 03:19:24;;;;;;;;;16.20;15.20;;;;;26.06;34.65;100729.44;5012902;28;29932;-56
2023/06/17 03:21:49;;;;;;;;;17.40;17.40;;;;;26.03;34.57;100728.06;5030562;28;29807;-54
2023/06/17 03:24:15;;;;;;;;;17.00;16.50;;;;;26.05;34.44;100720.19;5030518;28;29404;-55
2023/06/17 03:26:40;;;;;;;;;17.00;14.00;;;;;26.10;34.34;100722.84;5011834;28;30580;-57
2023/06/17 03:29:06;;;;;;;;;17.75;14.00;;;;;26.02;34.58;100701.13;5029779;28;29265;-56
2023/06/17 03:31:31;;;;;;;;;17.00;16.00;;;;;26.16;34.21;100726.38;5029379;28;29655;-55
2023/06/17 03:33:57;;;;;;;;;20.50;17.50;;;;;26.14;34.27;100714.59;5030323;28;29435;-56
2023/06/17 03:36:28;;;;;;;;;16.00;15.00;;;;;26.18;34.32;100718.44;5012609;28;31193;-56
2023/06/17 03:38:53;;;;;;;;;17.40;14.60;;;;;26.19;34.13;100716.47;5029978;28;29028;-56
2023/06/17 03:41:19;;;;;;;;;19.25;18.00;;;;;26.21;34.15;100717.78;5045791;28;29638;-56
2023/06/17 03:43:44;;;;;;;;;14.00;13.50;;;;;26.02;34.14;100691.84;5029395;28;29546;-54
2023/06/17 03:46:10;;;;;;;;;18.75;15.00;;;;;26.18;34.33;100720.41;5012029;28;29994;-53
2023/06/17 03:48:35;;;;;;;;;17.25;15.25;;;;;26.14;34.21;100717.41;5029780;28;28974;-57
2023/06/17 03:51:02;;;;;;;;;13.00;13.00;;;;;26.07;34.38;100715.06;5030047;28;29657;-55
2023/06/17 03:53:27;;;;;;;;;18.00;17.20;;;;;26.02;34.46;100718.00;5012104;28;29906;-56
2023/06/17 03:55:53;;;;;;;;;14.75;14.75;;;;;26.03;34.43;100711.22;5029831;28;29463;-54
2023/06/17 03:58:19;;;;;;;;;14.50;14.50;;;;;26.01;34.54;100721.09;5029665;28;29982;-55
2023/06/17 04:00:44;;;;;;;;;18.25;16.50;;;;;25.97;34.63;100712.47;5029601;28;29033;-55
2023/06/17 04:03:11;;;;;;;;;17.75;17.25;;;;;25.94;34.61;100711.13;5011852;28;29257;-57
2023/06/17 04:05:37;;;;;;;;;15.20;14.40;;;;;25.75;34.97;100697.25;5029469;28;31261;-56
2023/06/17 04:08:03;;;;;;;;;14.40;14.40;;;;;25.71;34.75;100705.50;5029587;28;29855;-55
2023/06/17 04:10:29;;;;;;;;;15.40;15.40;;;;;25.68;34.93;100713.72;5011847;28;29151;-55
2023/06/17 04:12:55;;;;;;;;;14.00;14.00;;;;;25.79;34.98;100717.13;5029520;28;29595;-57
2023/06/17 04:15:20;;;;;;;;;16.00;16.00;;;;;25.79;35.23;100719.94;5029413;28;29687;-54
2023/06/17 04:17:46;;;;;;;;;18.00;17.75;;;;;25.66;34.95;100708.41;5029156;28;29573;-55
2023/06/17 04:20:12;;;;;;;;;16.25;15.25;;;;;25.68;35.34;100711.72;5029154;28;29231;-56
2023/06/17 04:22:41;;;;;;;;;15.40;15.00;;;;;25.71;34.90;100707.44;5029394;28;29899;-56
2023/06/17 04:25:07;;;;;;;;;17.00;15.20;;;;;25.64;35.05;100709.88;5028672;28;29688;-55
2023/06/17 04:27:33;;;;;;;;;13.40;13.40;;;;;25.60;35.32;100715.28;5011216;28;29668;-55
2023/06/17 04:29:59;;;;;;;;;18.25;17.75;;;;;25.68;35.33;100727.78;5028924;28;29483;-56
2023/06/17 04:32:27;;;;;;;;;16.20;13.80;;;;;25.70;35.20;100722.66;5029096;28;29507;-56
2023/06/17 04:34:53;;;;;;;;;14.20;14.20;;;;;25.70;35.16;100722.66;5029102;28;29726;-56
2023/06/17 04:37:19;;;;;;;;;15.40;15.40;;;;;25.74;35.16;100723.69;5010952;28;29421;-55
2023/06/17 04:39:45;;;;;;;;;15.00;14.00;;;;;25.77;35.30;100722.25;5028811;28;29637;-56
2023/06/17 04:42:12;;;;;;;;;14.00;14.00;;;;;25.83;35.28;100732.22;5027779;28;29776;-57
2023/06/17 04:44:38;;;;;;;;;14.20;13.40;;;;;25.86;35.15;100720.31;5028646;28;29161;-57
2023/06/17 04:47:06;;;;;;;;;12.40;12.40;;;;;25.83;35.30;100718.16;5028507;28;29993;-58
2023/06/17 04:49:38;;;;;;;;;15.80;15.80;;;;;25.79;35.39;100720.78;5028496;28;29930;-58
2023/06/17 04:52:08;;;;;;;;;15.40;14.40;;;;;25.85;35.11;100713.91;5028359;28;30083;-56
2023/06/17 04:54:34;;;;;;;;;16.40;14.00;;;;;25.84;35.32;100720.63;5028500;28;29972;-52
2023/06/17 04:57:00;;;;;;;;;15.00;15.00;;;;;25.79;35.07;100703.91;5027199;28;29518;-56
2023/06/17 04:59:26;;;;;;;;;14.60;13.60;;;;;25.88;35.10;100712.41;5028502;28;29444;-54
2023/06/17 05:01:51;;;;;;;;;19.75;14.25;;;;;25.88;35.15;100711.59;5028928;28;29315;-55
2023/06/17 05:04:17;;;;;;;;;16.50;14.75;;;;;25.84;35.44;100703.78;5028362;28;29717;-56
2023/06/17 05:06:44;;;;;;;;;14.25;14.25;;;;;25.85;35.48;100705.47;5028685;28;30057;-56
2023/06/17 05:09:10;;;;;;;;;15.20;15.20;;;;;25.89;35.65;100702.00;5028255;28;29655;-55
2023/06/17 05:11:37;;;;;;;;;15.75;14.75;;;;;25.95;35.52;100706.34;5029151;28;29945;-54
2023/06/17 05:14:03;;;;;;;;;15.00;13.80;;;;;25.89;35.53;100693.56;5028025;28;29989;-54
2023/06/17 05:16:28;;;;;;;;;15.50;14.25;;;;;25.96;35.52;100691.16;5028580;28;28967;-57
2023/06/17 05:18:53;;;;;;;;;16.50;15.50;;;;;26.09;35.24;100706.31;5028590;28;29506;-56
2023/06/17 05:21:22;;;;;;;;;15.50;15.50;;;;;26.10;35.28;100707.97;5028621;28;29242;-55
2023/06/17 05:23:48;;;;;;;;;19.00;15.80;;;;;26.16;35.25;100705.84;5028615;28;30026;-56
2023/06/17 05:26:14;;;;;;;;;13.75;12.75;;;;;26.21;34.96;100711.34;5028157;28;29681;-53
2023/06/17 05:28:39;;;;;;;;;16.00;15.25;;;;;26.21;35.04;100711.34;5028133;28;29395;-57
2023/06/17 05:31:05;;;;;;;;;20.00;17.25;;;;;26.22;35.00;100710.22;5028363;28;29447;-58
2023/06/17 05:33:30;;;;;;;;;15.50;13.75;;;;;26.11;34.99;100716.06;5027970;28;29526;-57
2023/06/17 05:36:00;;;;;;;;;15.25;15.25;;;;;26.10;35.21;100716.41;5028422;28;29416;-55
2023/06/17 05:38:28;;;;;;;;;14.80;14.60;;;;;26.17;35.15;100713.13;5027862;28;29737;-57
2023/06/17 05:40:54;;;;;;;;;15.40;14.40;;;;;26.22;35.28;100713.03;5018309;28;29896;-54
2023/06/17 05:43:20;;;;;;;;;17.75;17.50;;;;;26.23;35.22;100706.25;4982640;28;30059;-52
2023/06/17 05:45:45;;;;;;;;;17.75;17.75;;;;;26.25;34.87;100709.59;5008680;28;29684;-52
2023/06/17 05:48:11;;;;;;;;;17.75;15.75;;;;;26.24;34.76;100705.09;5007258;28;29771;-52
2023/06/17 05:50:36;;;;;;;;;16.25;16.25;;;;;26.27;34.81;100712.91;5008445;28;30266;-57
2023/06/17 05:53:02;;;;;;;;;13.50;13.25;;;;;26.23;34.73;100706.25;5008568;28;30041;-58
2023/06/17 05:55:28;;;;;;;;;16.00;14.00;;;;;26.29;34.75;100704.16;5011476;28;29806;-52
2023/06/17 05:57:54;;;;;;;;;13.25;12.25;;;;;26.32;34.65;100709.16;5011915;28;29987;-55
2023/06/17 06:00:20;;;;;;;;;15.25;13.50;;;;;26.28;34.81;100708.94;5011829;28;29493;-55
2023/06/17 06:02:45;;;;;;;;;15.40;14.80;;;;;26.35;34.67;100708.50;5009742;28;30642;-56
2023/06/17 06:05:11;;;;;;;;;14.25;14.00;;;;;26.28;35.47;100702.47;5011420;28;29759;-58
2023/06/17 06:07:37;;;;;;;;;14.50;13.50;;;;;26.27;35.02;100712.06;5010155;28;29731;-55
2023/06/17 06:10:06;;;;;;;;;15.40;14.00;;;;;26.28;34.92;100700.50;5011818;28;29353;-56
2023/06/17 06:12:31;;;;;;;;;16.00;14.80;;;;;26.32;34.83;100707.19;5011332;28;30173;-56
2023/06/17 06:14:57;;;;;;;;;15.00;14.25;;;;;26.31;34.90;100719.56;5011808;28;29060;-57
2023/06/17 06:17:23;;;;;;;;;14.00;14.00;;;;;26.37;34.74;100723.09;5011428;28;29576;-55
2023/06/17 06:19:49;;;;;;;;;12.20;11.40;;;;;26.44;34.70;100722.63;5011038;28;29396;-58
2023/06/17 06:22:14;;;;;;;;;14.00;14.00;;;;;26.42;34.48;100716.50;5011501;28;30725;-54
2023/06/17 06:24:40;;;;;;;;;17.75;14.75;;;;;26.49;34.31;100723.34;5010883;28;29856;-56
2023/06/17 06:27:05;;;;;;;;;13.00;12.00;;;;;26.50;34.47;100726.97;5011075;28;29952;-55
2023/06/17 06:29:31;;;;;;;;;14.00;13.75;;;;;26.47;34.38;100722.81;5011233;28;29344;-53
2023/06/17 06:31:56;;;;;;;;;12.50;12.25;;;;;26.45;34.39;100724.28;5011022;28;30214;-57
2023/06/17 06:34:22;;;;;;;;;13.25;13.25;;;;;26.44;34.55;100715.03;5011212;28;29761;-56
2023/06/17 06:36:47;;;;;;;;;14.00;13.00;;;;;26.41;34.67;100724.09;5011001;28;29695;-53
2023/06/17 06:39:13;;;;;;;;;13.25;13.25;;;;;26.33;34.81;100725.72;5009852;28;29739;-55
2023/06/17 06:41:38;;;;;;;;;17.25;16.00;;;;;26.34;35.01;100730.19;5013070;28;30058;-55
2023/06/17 06:44:04;;;;;;;;;12.75;12.75;;;;;26.42;35.10;100733.38;5021937;28;29957;-54
2023/06/17 06:46:31;;;;;;;;;15.75;15.75;;;;;26.49;35.00;100742.19;5019941;28;29868;-54
2023/06/17 06:48:56;;;;;;;;;16.80;14.00;;;;;26.53;34.60;100737.59;5029829;28;29841;-59
2023/06/17 06:51:22;;;;;;;;;14.00;14.00;;;;;26.57;34.73;100738.59;5030747;28;30174;-55
2023/06/17 06:53:48;;;;;;;;;19.25;15.00;;;;;26.58;34.43;100737.47;5030129;28;29941;-56
2023/06/17 06:56:14;;;;;;;;;15.40;15.20;;;;;26.53;34.85;100746.03;5030888;28;29492;-57
2023/06/17 06:58:39;;;;;;;;;15.75;13.25;;;;;26.52;34.46;100719.06;5013134;28;29076;-55
2023/06/17 07:01:05;;;;;;;;;15.75;14.00;;;;;26.74;34.34;100742.69;5030422;28;29566;-58
2023/06/17 07:03:30;;;;;;;;;15.00;15.00;;;;;26.76;34.37;100740.38;5030524;28;29458;-58
2023/06/17 07:05:56;;;;;;;;;17.50;15.00;;;;;26.71;34.35;100740.50;5029822;28;28929;-58
2023/06/17 07:08:21;;;;;;;;;14.00;14.00;;;;;26.73;34.39;100741.03;5046038;28;29517;-58
2023/06/17 07:10:47;;;;;;;;;17.25;14.75;;;;;26.81;34.23;100748.69;5030340;28;29265;-57
2023/06/17 07:13:12;;;;;;;;;23.50;20.00;;;;;26.84;34.10;100744.38;5030396;28;29829;-56
2023/06/17 07:15:38;;;;;;;;;18.50;14.75;;;;;26.86;34.53;100744.88;5030297;28;29457;-57
2023/06/17 07:18:04;;;;;;;;;15.00;15.00;;;;;26.86;34.20;100742.91;5030567;28;29626;-58
2023/06/17 07:20:29;;;;;;;;;14.00;14.00;;;;;26.92;34.44;100746.44;5030368;28;29736;-57
2023/06/17 07:22:55;;;;;;;;;15.25;15.25;;;;;26.91;34.19;100731.56;5032545;28;29170;-57
2023/06/17 07:25:20;;;;;;;;;15.75;15.00;;;;;27.04;34.30;100741.03;5030024;28;29365;-58
2023/06/17 07:27:46;;;;;;;;;16.75;14.75;;;;;27.01;34.47;100746.50;5034825;28;29666;-57
2023/06/17 07:30:12;;;;;;;;;13.50;13.50;;;;;27.00;34.51;100747.66;5030146;28;29904;-58
2023/06/17 07:32:37;;;;;;;;;16.00;15.50;;;;;27.03;34.51;100749.81;5011213;28;29330;-57
2023/06/17 07:35:04;;;;;;;;;16.75;16.75;;;;;27.04;34.42;100746.66;5028278;28;29527;-58
2023/06/17 07:37:29;;;;;;;;;18.60;16.00;;;;;27.11;34.62;100751.81;5044102;28;29608;-58
2023/06/17 07:39:56;;;;;;;;;14.25;14.25;;;;;27.13;34.52;100748.69;5049443;28;29877;-56
2023/06/17 07:42:21;;;;;;;;;15.20;14.20;;;;;27.23;34.33;100741.94;5048393;28;29190;-57
2023/06/17 07:44:47;;;;;;;;;14.75;12.75;;;;;27.25;34.06;100745.28;5048766;28;29534;-57
2023/06/17 07:47:12;;;;;;;;;15.50;14.25;;;;;27.30;34.58;100762.84;5030848;28;29137;-59
2023/06/17 07:49:38;;;;;;;;;18.00;15.75;;;;;27.37;34.15;100765.16;5048604;28;29591;-58
2023/06/17 07:52:04;;;;;;;;;16.25;15.25;;;;;27.29;34.04;100744.28;5035883;28;29700;-56
2023/06/17 07:54:30;;;;;;;;;15.00;14.00;;;;;27.38;33.96;100755.59;5028323;28;29879;-57
2023/06/17 07:56:56;;;;;;;;;15.00;15.00;;;;;27.46;33.84;100751.97;5028807;28;29984;-57
2023/06/17 07:59:22;;;;;;;;;15.75;15.75;;;;;27.56;33.66;100758.44;5014747;28;29893;-61
2023/06/17 08:01:47;;;;;;;;;14.75;14.75;;;;;27.60;33.55;100757.47;5009325;28;29789;-57
2023/06/17 08:04:13;;;;;;;;;15.25;14.25;;;;;27.60;33.29;100751.03;5019591;28;29658;-57
2023/06/17 08:06:40;;;;;;;;;13.25;13.00;;;;;27.58;33.79;100754.16;5048373;28;30018;-56
2023/06/17 08:09:06;;;;;;;;;13.80;13.80;;;;;27.65;33.36;100750.88;5047759;28;29676;-56
2023/06/17 08:11:31;;;;;;;;;13.50;13.50;;;;;27.68;33.25;100752.19;5048126;28;30087;-56
2023/06/17 08:13:57;;;;;;;;;14.00;14.00;;;;;27.72;33.37;100748.41;5048190;28;29451;-59
2023/06/17 08:16:22;;;;;;;;;13.50;13.25;;;;;27.76;33.29;100751.38;5042199;28;29961;-58
2023/06/17 08:18:48;;;;;;;;;14.75;13.25;;;;;27.87;33.29;100743.44;5029966;28;31983;-58
2023/06/17 08:21:13;;;;;;;;;16.00;13.25;;;;;27.96;32.95;100740.63;5047618;28;29680;-59
2023/06/17 08:23:39;;;;;;;;;16.50;15.25;;;;;27.95;33.12;100731.31;5045324;28;29947;-58
2023/06/17 08:26:04;;;;;;;;;19.00;15.50;;;;;27.98;32.32;100736.31;5028242;28;29470;-58
2023/06/17 08:28:30;;;;;;;;;13.75;13.75;;;;;28.01;32.58;100735.66;5026447;28;30020;-56
2023/06/17 08:30:55;;;;;;;;;15.00;15.00;;;;;28.04;32.50;100722.03;5043590;28;29825;-60
2023/06/17 08:33:21;;;;;;;;;14.00;12.75;;;;;28.08;32.69;100723.88;5047642;28;29819;-59
2023/06/17 08:35:46;;;;;;;;;13.00;11.00;;;;;28.11;32.49;100713.91;5047351;28;30069;-59
2023/06/17 08:38:12;;;;;;;;;14.00;14.00;;;;;28.19;31.94;100718.72;5029930;28;29516;-58
2023/06/17 08:40:37;;;;;;;;;17.00;14.00;;;;;28.25;32.18;100719.41;5041190;28;30326;-60
2023/06/17 08:43:03;;;;;;;;;16.25;14.00;;;;;28.33;31.98;100720.56;5029492;28;29919;-58
2023/06/17 08:45:29;;;;;;;;;12.50;12.50;;;;;28.39;31.44;100720.03;5047132;28;29899;-61
2023/06/17 08:47:57;;;;;;;;;14.60;14.60;;;;;28.38;31.24;100709.09;5047322;28;29704;-55
2023/06/17 08:50:24;;;;;;;;;15.60;14.40;;;;;28.49;31.03;100715.22;5009701;28;29599;-58
2023/06/17 08:52:50;;;;;;;;;14.40;13.00;;;;;28.55;31.31;100696.94;5026225;28;29072;-56
2023/06/17 08:55:15;;;;;;;;;13.00;13.00;;;;;28.75;30.87;100708.69;5009868;28;29560;-58
2023/06/17 08:57:41;;;;;;;;;14.25;14.25;;;;;28.78;30.83;100702.34;5027346;28;29380;-58
2023/06/17 09:00:10;;;;;;;;;10.25;10.25;;;;;28.71;31.01;100685.09;4986752;28;29487;-60
2023/06/17 09:02:36;;;;;;;;;15.60;15.40;;;;;28.85;30.79;100704.66;5021833;28;30251;-60
2023/06/17 09:05:58;;;;;;;;;12.40;12.40;;;;;28.87;30.90;100708.00;5058122;27;29780;-57
2023/06/17 09:08:23;;;;;;;;;13.75;13.50;;;;;28.96;31.12;100691.81;5060340;28;29786;-56
2023/06/17 09:10:49;;;;;;;;;12.50;12.50;;;;;29.11;31.25;100704.56;5062772;28;29813;-56
2023/06/17 09:13:14;;;;;;;;;13.00;13.00;;;;;29.17;30.91;100699.53;5063469;28;28969;-58
2023/06/17 09:15:43;;;;;;;;;14.50;14.25;;;;;29.22;31.07;100702.16;5079449;28;29721;-59
2023/06/17 09:18:09;;;;;;;;;13.20;11.60;;;;;29.30;30.64;100704.13;5082580;28;29236;-58
2023/06/17 09:20:34;;;;;;;;;14.75;13.75;;;;;29.33;31.10;100697.78;5078219;27;29737;-60
2023/06/17 09:23:00;;;;;;;;;14.25;14.25;;;;;29.41;31.12;100698.91;5062742;28;29695;-57
2023/06/17 09:25:25;;;;;;;;;13.00;12.25;;;;;29.39;31.05;100703.25;5062397;28;30089;-58
2023/06/17 09:27:52;;;;;;;;;16.25;15.00;;;;;29.36;31.21;100705.56;5062411;28;29905;-54
2023/06/17 09:30:20;;;;;;;;;15.60;14.60;;;;;29.44;31.69;100701.03;5063958;28;29875;-57
2023/06/17 09:32:46;;;;;;;;;16.00;14.00;;;;;29.41;31.48;100707.41;5063350;28;30055;-56
2023/06/17 09:35:15;;;;;;;;;17.20;17.00;;;;;29.32;31.80;100706.59;5062485;28;29739;-53
2023/06/17 09:37:42;;;;;;;;;15.80;15.80;;;;;29.36;32.05;100702.75;5063474;28;29021;-60
2023/06/17 09:40:08;;;;;;;;;19.00;17.00;;;;;29.44;31.67;100698.22;5062445;28;29401;-56
2023/06/17 09:42:33;;;;;;;;;16.25;16.00;;;;;29.52;31.85;100696.56;5063089;28;29247;-56
2023/06/17 09:45:03;;;;;;;;;16.75;16.25;;;;;29.65;32.40;100699.47;5065358;28;32077;-57
2023/06/17 09:47:37;;;;;;;;;17.20;17.20;;;;;29.71;32.05;100698.88;5082214;28;29741;-56
2023/06/17 09:50:09;;;;;;;;;15.00;15.00;;;;;29.79;32.12;100699.16;5083691;27;29632;-55
2023/06/17 09:52:35;;;;;;;;;20.20;20.20;;;;;29.78;31.57;100692.69;5083815;27;29788;-56
2023/06/17 09:55:04;;;;;;;;;16.60;16.60;;;;;29.86;31.61;100694.63;5082240;28;29930;-57
2023/06/17 09:57:31;;;;;;;;;18.40;16.60;;;;;29.99;32.12;100695.50;5071292;28;29583;-58
2023/06/17 10:00:00;;;;;;;;;20.40;20.00;;;;;30.07;32.10;100684.44;5083653;27;29638;-57
2023/06/17 10:02:29;;;;;;;;;17.20;17.20;;;;;30.07;31.75;100688.13;5082766;27;29376;-58
2023/06/17 10:04:54;;;;;;;;;18.00;18.00;;;;;30.00;31.51;100679.38;5054141;27;30257;-55
2023/06/17 10:07:22;;;;;;;;;17.75;17.00;;;;;30.12;31.36;100690.78;5062371;28;29838;-58
2023/06/17 10:09:47;;;;;;;;;16.80;16.80;;;;;30.23;32.12;100691.16;5056993;28;29876;-60
2023/06/17 10:12:13;;;;;;;;;23.00;20.25;;;;;30.34;31.58;100697.19;5061856;28;30104;-57
2023/06/17 10:14:38;;;;;;;;;19.00;18.00;;;;;30.33;31.47;100684.22;5063849;28;29684;-55
2023/06/17 10:17:05;;;;;;;;;20.00;19.00;;;;;30.32;31.58;100676.91;5050458;28;29872;-58
2023/06/17 10:19:32;;;;;;;;;22.00;20.20;;;;;30.25;31.63;100683.13;5048969;28;30066;-56
2023/06/17 10:21:57;;;;;;;;;23.20;19.40;;;;;30.28;31.79;100671.13;5048716;28;30115;-55
2023/06/17 10:24:23;;;;;;;;;20.50;19.00;;;;;30.32;31.47;100654.28;5048772;28;29614;-57
2023/06/17 10:26:52;;;;;;;;;17.75;17.25;;;;;30.38;31.31;100667.03;5048768;28;30159;-57
2023/06/17 10:29:18;;;;;;;;;22.00;21.00;;;;;30.33;31.37;100655.94;5048891;28;29989;-56
2023/06/17 10:31:43;;;;;;;;;24.00;23.00;;;;;30.42;31.29;100662.31;5065963;28;29774;-55
2023/06/17 10:34:29;;;;;;;;;19.00;16.50;;;;;30.48;31.78;100665.75;5048910;28;29797;-58
2023/06/17 10:36:58;;;;;;;;;17.60;17.20;;;;;30.57;31.77;100654.34;5050483;28;29559;-53
2023/06/17 10:39:23;;;;;;;;;21.20;19.80;;;;;30.62;31.53;100656.09;5048447;28;29457;-53
2023/06/17 10:41:52;;;;;;;;;20.50;19.50;;;;;30.62;31.24;100651.25;5050676;28;29407;-57
2023/06/17 10:44:27;;;;;;;;;19.40;18.40;;;;;30.62;31.65;100645.59;5050016;28;31317;-58
2023/06/17 10:46:53;;;;;;;;;25.00;24.00;;;;;30.80;31.84;100653.91;5050449;28;30084;-55
2023/06/17 10:49:19;;;;;;;;;21.80;20.20;;;;;30.81;31.57;100645.06;5048698;28;29740;-57
2023/06/17 10:51:51;;;;;;;;;18.50;17.75;;;;;30.95;31.29;100653.19;5048454;28;29784;-57
2023/06/17 10:54:49;;;;;;;;;21.60;20.00;;;;;31.00;31.22;100648.47;5048836;28;29491;-56
2023/06/17 10:57:14;;;;;;;;;21.20;20.80;;;;;30.91;31.32;100629.59;5045632;28;29616;-57
2023/06/17 10:59:40;;;;;;;;;26.50;22.75;;;;;31.02;31.17;100643.28;5049796;28;29468;-60
2023/06/17 11:02:09;;;;;;;;;21.75;21.75;;;;;31.03;31.02;100636.44;5049748;28;30078;-57
2023/06/17 11:04:35;;;;;;;;;20.00;20.00;;;;;31.03;31.13;100642.94;5029452;28;31203;-57
2023/06/17 11:07:02;;;;;;;;;19.60;19.60;;;;;31.08;31.24;100645.53;5023157;28;29657;-57